sensor_id;sensor_type;location;lat;lon;timestamp;temperature;humidity
23495;DHT22;26107;50.832;2.950;2024-02-15T00:11:11;13.60;99.90
23495;DHT22;26107;50.832;2.950;2024-02-15T00:26:16;13.50;99.90
23495;DHT22;26107;50.832;2.950;2024-02-15T00:41:17;13.40;99.90
23495;DHT22;26107;50.832;2.950;2024-02-15T00:56:20;13.50;99.90
23495;DHT22;26107;50.832;2.950;2024-02-15T01:11:25;13.30;99.90
23495;DHT22;26107;50.832;2.950;2024-02-15T01:26:28;13.30;99.90
23495;DHT22;26107;50.832;2.950;2024-02-15T01:41:30;13.50;99.90
23495;DHT22;26107;50.832;2.950;2024-02-15T01:56:31;13.20;99.90
23495;DHT22;26107;50.832;2.950;2024-02-15T02:11:32;13.50;99.90
23495;DHT22;26107;50.832;2.950;2024-02-15T02:26:33;13.40;99.90
23495;DHT22;26107;50.832;2.950;2024-02-15T02:41:37;13.50;99.90
23495;DHT22;26107;50.832;2.950;2024-02-15T02:56:37;13.70;99.90
23495;DHT22;26107;50.832;2.950;2024-02-15T03:11:40;13.50;99.90
23495;DHT22;26107;50.832;2.950;2024-02-15T03:26:43;13.60;99.90
23495;DHT22;26107;50.832;2.950;2024-02-15T03:41:44;13.60;99.90
23495;DHT22;26107;50.832;2.950;2024-02-15T03:56:50;13.70;99.90
23495;DHT22;26107;50.832;2.950;2024-02-15T04:11:54;13.30;99.90
23495;DHT22;26107;50.832;2.950;2024-02-15T04:26:57;13.50;99.90
23495;DHT22;26107;50.832;2.950;2024-02-15T04:41:59;13.50;99.90
23495;DHT22;26107;50.832;2.950;2024-02-15T04:57:00;13.50;99.90
23495;DHT22;26107;50.832;2.950;2024-02-15T05:12:01;13.50;99.90
23495;DHT22;26107;50.832;2.950;2024-02-15T05:27:05;13.40;99.90
23495;DHT22;26107;50.832;2.950;2024-02-15T05:42:06;13.50;99.90
23495;DHT22;26107;50.832;2.950;2024-02-15T05:57:07;13.40;99.90
23495;DHT22;26107;50.832;2.950;2024-02-15T06:12:08;13.30;99.90
23495;DHT22;26107;50.832;2.950;2024-02-15T06:27:09;13.60;99.90
23495;DHT22;26107;50.832;2.950;2024-02-15T06:42:15;13.30;99.90
23495;DHT22;26107;50.832;2.950;2024-02-15T06:57:17;13.00;99.90
23495;DHT22;26107;50.832;2.950;2024-02-15T07:12:17;13.10;99.90
23495;DHT22;26107;50.832;2.950;2024-02-15T07:27:21;13.00;99.90
23495;DHT22;26107;50.832;2.950;2024-02-15T07:42:27;12.90;99.90
23495;DHT22;26107;50.832;2.950;2024-02-15T07:57:28;13.10;99.90
23495;DHT22;26107;50.832;2.950;2024-02-15T08:12:34;13.30;99.90
23495;DHT22;26107;50.832;2.950;2024-02-15T08:27:36;13.30;99.90
23495;DHT22;26107;50.832;2.950;2024-02-15T08:42:41;13.30;99.90
23495;DHT22;26107;50.832;2.950;2024-02-15T08:57:42;13.40;99.90
23495;DHT22;26107;50.832;2.950;2024-02-15T09:12:45;13.50;99.90
23495;DHT22;26107;50.832;2.950;2024-02-15T09:27:49;13.70;99.90
23495;DHT22;26107;50.832;2.950;2024-02-15T09:42:51;13.90;99.90
23495;DHT22;26107;50.832;2.950;2024-02-15T09:57:52;14.30;99.90
23495;DHT22;26107;50.832;2.950;2024-02-15T10:12:53;14.60;99.90
23495;DHT22;26107;50.832;2.950;2024-02-15T10:28:03;14.70;99.90
23495;DHT22;26107;50.832;2.950;2024-02-15T10:43:10;15.10;99.90
23495;DHT22;26107;50.832;2.950;2024-02-15T10:58:18;15.60;99.90
23495;DHT22;26107;50.832;2.950;2024-02-15T11:13:19;15.90;99.90
23495;DHT22;26107;50.832;2.950;2024-02-15T11:59:04;16.30;99.90
23495;DHT22;26107;50.832;2.950;2024-02-15T12:14:11;16.50;99.90
23495;DHT22;26107;50.832;2.950;2024-02-15T12:29:31;16.80;99.90
23495;DHT22;26107;50.832;2.950;2024-02-15T12:44:33;17.00;99.90
23495;DHT22;26107;50.832;2.950;2024-02-15T12:59:35;17.00;99.90
23495;DHT22;26107;50.832;2.950;2024-02-15T13:14:39;16.90;99.90
23495;DHT22;26107;50.832;2.950;2024-02-15T13:29:43;16.90;99.90
23495;DHT22;26107;50.832;2.950;2024-02-15T13:44:45;17.00;99.90
23495;DHT22;26107;50.832;2.950;2024-02-15T13:59:48;17.10;99.90
23495;DHT22;26107;50.832;2.950;2024-02-15T14:14:51;17.50;99.90
23495;DHT22;26107;50.832;2.950;2024-02-15T14:29:54;17.30;99.90
23495;DHT22;26107;50.832;2.950;2024-02-15T14:45:15;17.30;99.90
23495;DHT22;26107;50.832;2.950;2024-02-15T15:00:16;17.10;99.90
23495;DHT22;26107;50.832;2.950;2024-02-15T15:15:24;16.80;99.90
23495;DHT22;26107;50.832;2.950;2024-02-15T15:30:26;16.70;99.90
23495;DHT22;26107;50.832;2.950;2024-02-15T15:45:26;16.50;99.90
23495;DHT22;26107;50.832;2.950;2024-02-15T16:00:27;16.40;99.90
23495;DHT22;26107;50.832;2.950;2024-02-15T16:15:28;16.40;99.90
23495;DHT22;26107;50.832;2.950;2024-02-15T16:30:31;16.20;99.90
23495;DHT22;26107;50.832;2.950;2024-02-15T16:45:33;16.20;99.90
23495;DHT22;26107;50.832;2.950;2024-02-15T17:00:34;16.10;99.90
23495;DHT22;26107;50.832;2.950;2024-02-15T17:15:37;15.90;99.90
23495;DHT22;26107;50.832;2.950;2024-02-15T17:30:37;15.70;99.90
23495;DHT22;26107;50.832;2.950;2024-02-15T17:45:39;15.70;99.90
23495;DHT22;26107;50.832;2.950;2024-02-15T18:00:44;15.50;99.90
23495;DHT22;26107;50.832;2.950;2024-02-15T18:15:50;15.40;99.90
23495;DHT22;26107;50.832;2.950;2024-02-15T18:30:52;15.40;99.90
23495;DHT22;26107;50.832;2.950;2024-02-15T18:45:53;15.30;99.90
23495;DHT22;26107;50.832;2.950;2024-02-15T19:00:54;15.20;99.90
23495;DHT22;26107;50.832;2.950;2024-02-15T19:15:54;15.10;99.90
23495;DHT22;26107;50.832;2.950;2024-02-15T19:30:57;15.30;99.90
23495;DHT22;26107;50.832;2.950;2024-02-15T19:46:04;15.00;99.90
23495;DHT22;26107;50.832;2.950;2024-02-15T20:01:05;14.90;99.90
23495;DHT22;26107;50.832;2.950;2024-02-15T20:16:06;14.80;99.90
23495;DHT22;26107;50.832;2.950;2024-02-15T20:31:12;14.90;99.90
23495;DHT22;26107;50.832;2.950;2024-02-15T20:46:13;14.70;99.90
23495;DHT22;26107;50.832;2.950;2024-02-15T21:01:18;14.70;99.90
23495;DHT22;26107;50.832;2.950;2024-02-15T21:16:20;14.80;99.90
23495;DHT22;26107;50.832;2.950;2024-02-15T21:31:21;14.70;99.90
23495;DHT22;26107;50.832;2.950;2024-02-15T21:46:25;14.70;99.90
23495;DHT22;26107;50.832;2.950;2024-02-15T22:01:26;14.60;99.90
23495;DHT22;26107;50.832;2.950;2024-02-15T22:16:27;14.30;99.90
23495;DHT22;26107;50.832;2.950;2024-02-15T22:31:30;14.30;99.90
23495;DHT22;26107;50.832;2.950;2024-02-15T22:46:30;14.20;99.90
23495;DHT22;26107;50.832;2.950;2024-02-15T23:01:31;14.20;99.90
23495;DHT22;26107;50.832;2.950;2024-02-15T23:16:32;14.30;99.90
23495;DHT22;26107;50.832;2.950;2024-02-15T23:31:35;14.30;99.90
23495;DHT22;26107;50.832;2.950;2024-02-15T23:46:35;14.20;99.90
